createdAt,value
2018-11-11T00:00:24.908Z,14.10
2018-11-11T00:01:28.600Z,14.10
2018-11-11T00:02:32.012Z,14.10
2018-11-11T00:03:35.442Z,14.10
2018-11-11T00:04:39.179Z,14.10
2018-11-11T00:05:42.569Z,14.10
2018-11-11T00:06:45.952Z,14.10
2018-11-11T00:07:49.363Z,14.10
2018-11-11T00:08:52.949Z,14.10
2018-11-11T00:09:56.340Z,14.00
2018-11-11T00:10:59.741Z,14.00
2018-11-11T00:12:03.126Z,14.00
2018-11-11T00:13:06.528Z,14.00
2018-11-11T00:14:09.913Z,14.00
2018-11-11T00:15:14.463Z,14.00
2018-11-11T00:16:17.844Z,14.00
2018-11-11T00:17:21.216Z,13.90
2018-11-11T00:18:24.709Z,13.90
2018-11-11T00:19:28.098Z,14.00
2018-11-11T00:20:31.513Z,13.90
2018-11-11T00:21:34.931Z,14.00
2018-11-11T00:22:38.664Z,14.00
2018-11-11T00:23:42.089Z,13.90
2018-11-11T00:24:45.452Z,13.90
2018-11-11T00:25:48.815Z,13.90
2018-11-11T00:26:58.929Z,13.90
2018-11-11T00:28:02.313Z,13.90
2018-11-11T00:29:06.300Z,13.90
2018-11-11T00:30:14.037Z,13.90
2018-11-11T00:31:17.416Z,13.90
2018-11-11T00:32:20.800Z,13.90
2018-11-11T00:33:24.208Z,13.90
2018-11-11T00:34:27.624Z,13.90
2018-11-11T00:35:30.979Z,13.90
2018-11-11T00:36:34.381Z,13.90
2018-11-11T00:37:38.048Z,13.90
2018-11-11T00:38:41.416Z,13.90
2018-11-11T00:39:44.919Z,13.90
2018-11-11T00:40:48.192Z,13.90
2018-11-11T00:41:51.590Z,13.90
2018-11-11T00:42:54.981Z,13.90
2018-11-11T00:43:58.364Z,13.90
2018-11-11T00:45:01.805Z,13.90
2018-11-11T00:46:05.441Z,13.90
2018-11-11T00:47:08.806Z,13.90
2018-11-11T00:48:12.176Z,14.00
2018-11-11T00:49:15.553Z,14.00
2018-11-11T00:50:18.978Z,14.00
2018-11-11T00:51:22.442Z,14.00
2018-11-11T00:52:25.811Z,13.90
2018-11-11T00:53:29.177Z,14.00
2018-11-11T00:54:32.564Z,13.90
2018-11-11T00:55:38.050Z,14.00
2018-11-11T00:56:41.419Z,14.00
2018-11-11T00:57:45.274Z,13.90
2018-11-11T00:58:48.631Z,13.90
2018-11-11T00:59:52.006Z,13.90
2018-11-11T01:00:55.418Z,13.90
2018-11-11T01:01:58.889Z,13.90
2018-11-11T01:03:02.281Z,13.90
2018-11-11T01:04:06.116Z,13.90
2018-11-11T01:05:10.388Z,13.90
2018-11-11T01:06:13.824Z,13.90
2018-11-11T01:07:17.272Z,13.90
2018-11-11T01:08:20.703Z,13.90
2018-11-11T01:09:24.059Z,13.90
2018-11-11T01:10:27.453Z,13.90
2018-11-11T01:11:30.971Z,13.90
2018-11-11T01:12:34.348Z,13.90
2018-11-11T01:13:37.864Z,13.90
2018-11-11T01:14:41.250Z,13.90
2018-11-11T01:15:44.624Z,13.90
2018-11-11T01:16:48.003Z,13.90
2018-11-11T01:17:51.489Z,13.90
2018-11-11T01:18:54.844Z,13.80
2018-11-11T01:19:58.215Z,13.80
2018-11-11T01:21:01.613Z,13.80
2018-11-11T01:22:05.008Z,13.80
2018-11-11T01:23:08.419Z,13.80
2018-11-11T01:24:11.960Z,13.80
2018-11-11T01:25:16.366Z,13.80
2018-11-11T01:26:19.762Z,13.80
2018-11-11T01:27:23.117Z,13.80
2018-11-11T01:28:26.488Z,13.80
2018-11-11T01:29:29.908Z,13.80
2018-11-11T01:30:33.276Z,13.80
2018-11-11T01:31:36.672Z,13.80
2018-11-11T01:32:40.165Z,13.80
2018-11-11T01:33:43.533Z,13.70
2018-11-11T01:34:46.921Z,13.80
2018-11-11T01:35:50.320Z,13.70
2018-11-11T01:36:53.700Z,13.70
2018-11-11T01:37:57.145Z,13.70
2018-11-11T01:39:00.520Z,13.70
2018-11-11T01:40:03.904Z,13.70
2018-11-11T01:41:07.276Z,13.70
2018-11-11T01:42:10.675Z,13.70
2018-11-11T01:43:14.112Z,13.70
2018-11-11T01:44:17.505Z,13.70
2018-11-11T01:45:20.863Z,13.70
2018-11-11T01:46:24.228Z,13.70
2018-11-11T01:47:27.606Z,13.80
2018-11-11T01:48:30.992Z,13.70
2018-11-11T01:49:34.395Z,13.70
2018-11-11T01:50:37.776Z,13.70
2018-11-11T01:51:41.131Z,13.70
2018-11-11T01:52:44.564Z,13.70
2018-11-11T01:53:47.951Z,13.80
2018-11-11T01:54:51.321Z,13.70
2018-11-11T01:55:54.742Z,13.70
2018-11-11T01:56:58.121Z,13.80
2018-11-11T01:58:01.538Z,13.70
2018-11-11T01:59:04.915Z,13.70
2018-11-11T02:00:11.775Z,13.70
2018-11-11T02:01:15.221Z,13.70
2018-11-11T02:02:18.609Z,13.80
2018-11-11T02:03:21.988Z,13.70
2018-11-11T02:04:25.355Z,13.70
2018-11-11T02:05:28.728Z,13.80
2018-11-11T02:06:32.116Z,13.80
2018-11-11T02:07:35.501Z,13.80
2018-11-11T02:08:38.906Z,13.80
2018-11-11T02:09:42.314Z,13.80
2018-11-11T02:10:45.652Z,13.80
2018-11-11T02:11:49.049Z,13.80
2018-11-11T02:12:52.453Z,13.80
2018-11-11T02:13:55.869Z,13.80
2018-11-11T02:14:59.224Z,13.80
2018-11-11T02:16:02.594Z,13.80
2018-11-11T02:17:06.021Z,13.80
2018-11-11T02:18:09.420Z,13.80
2018-11-11T02:19:12.802Z,13.80
2018-11-11T02:20:17.741Z,13.80
2018-11-11T02:21:21.120Z,13.80
2018-11-11T02:22:24.526Z,13.80
2018-11-11T02:23:27.912Z,13.80
2018-11-11T02:24:31.294Z,13.80
2018-11-11T02:25:34.744Z,13.80
2018-11-11T02:26:38.163Z,13.80
2018-11-11T02:27:41.537Z,13.80
2018-11-11T02:28:44.921Z,13.80
2018-11-11T02:29:48.373Z,13.80
2018-11-11T02:30:51.984Z,13.80
2018-11-11T02:31:55.380Z,13.80
2018-11-11T02:32:58.824Z,13.80
2018-11-11T02:34:02.213Z,13.80
2018-11-11T02:35:05.752Z,13.80
2018-11-11T02:36:09.212Z,13.80
2018-11-11T02:37:12.605Z,13.80
2018-11-11T02:38:16.178Z,13.80
2018-11-11T02:39:19.574Z,13.80
2018-11-11T02:40:22.984Z,13.80
2018-11-11T02:41:26.449Z,13.80
2018-11-11T02:42:29.865Z,13.80
2018-11-11T02:43:33.538Z,13.80
2018-11-11T02:44:36.928Z,13.80
2018-11-11T02:45:40.323Z,13.80
2018-11-11T02:46:43.729Z,13.80
2018-11-11T02:47:47.132Z,13.80
2018-11-11T02:48:50.552Z,13.80
2018-11-11T02:49:53.935Z,13.80
2018-11-11T02:50:57.356Z,13.80
2018-11-11T02:52:00.750Z,13.80
2018-11-11T02:53:04.137Z,13.80
2018-11-11T02:54:07.575Z,13.90
2018-11-11T02:55:11.653Z,13.80
2018-11-11T02:56:15.049Z,13.90
2018-11-11T02:57:18.528Z,13.80
2018-11-11T02:58:22.458Z,13.80
2018-11-11T02:59:25.851Z,13.90
2018-11-11T03:00:29.342Z,13.90
2018-11-11T03:01:32.717Z,13.80
2018-11-11T03:02:36.114Z,13.90
2018-11-11T03:03:39.488Z,13.90
2018-11-11T03:04:42.881Z,13.90
2018-11-11T03:05:46.283Z,13.90
2018-11-11T03:06:49.678Z,13.90
2018-11-11T03:07:53.035Z,13.90
2018-11-11T03:08:56.420Z,13.90
2018-11-11T03:09:59.826Z,13.90
2018-11-11T03:11:03.220Z,13.80
2018-11-11T03:12:06.604Z,13.90
2018-11-11T03:13:09.987Z,13.90
2018-11-11T03:14:13.358Z,13.90
2018-11-11T03:15:17.125Z,13.90
2018-11-11T03:16:20.560Z,13.90
2018-11-11T03:17:23.956Z,13.80
2018-11-11T03:19:37.083Z,13.90
2018-11-11T03:20:40.545Z,13.90
2018-11-11T03:21:43.937Z,13.90
2018-11-11T03:22:47.320Z,13.90
2018-11-11T03:23:50.709Z,13.90
2018-11-11T03:24:54.064Z,13.90
2018-11-11T03:25:57.465Z,13.90
2018-11-11T03:27:00.844Z,13.90
2018-11-11T03:28:04.242Z,13.90
2018-11-11T03:29:07.821Z,13.90
2018-11-11T03:30:12.794Z,13.90
2018-11-11T03:31:16.189Z,13.90
2018-11-11T03:32:19.876Z,13.90
2018-11-11T03:33:23.268Z,13.90
2018-11-11T03:34:26.733Z,13.90
2018-11-11T03:35:30.108Z,13.80
2018-11-11T03:36:33.527Z,13.80
2018-11-11T03:37:36.937Z,13.80
2018-11-11T03:38:40.331Z,13.80
2018-11-11T03:39:43.691Z,13.80
2018-11-11T03:40:47.117Z,13.80
2018-11-11T03:41:50.510Z,13.80
2018-11-11T03:42:53.903Z,13.70
2018-11-11T03:43:57.301Z,13.70
2018-11-11T03:45:00.671Z,13.70
2018-11-11T03:46:04.061Z,13.70
2018-11-11T03:47:07.468Z,13.70
2018-11-11T03:48:10.937Z,13.70
2018-11-11T03:49:14.316Z,13.70
2018-11-11T03:50:17.727Z,13.70
2018-11-11T03:51:21.113Z,13.60
2018-11-11T03:52:24.510Z,13.70
2018-11-11T03:53:27.953Z,13.60
2018-11-11T03:54:31.369Z,13.60
2018-11-11T03:55:34.739Z,13.70
2018-11-11T03:56:38.488Z,13.60
2018-11-11T03:57:41.969Z,13.70
2018-11-11T03:58:45.369Z,13.70
2018-11-11T03:59:48.682Z,13.70
2018-11-11T04:00:52.053Z,13.70
2018-11-11T04:01:55.436Z,13.70
2018-11-11T04:02:58.808Z,13.70
2018-11-11T04:04:02.208Z,13.70
2018-11-11T04:05:06.312Z,13.70
2018-11-11T04:06:09.708Z,13.70
2018-11-11T04:07:13.095Z,13.70
2018-11-11T04:08:16.453Z,13.70
2018-11-11T04:09:19.833Z,13.70
2018-11-11T04:10:23.222Z,13.70
2018-11-11T04:11:26.597Z,13.70
2018-11-11T04:12:29.988Z,13.70
2018-11-11T04:13:33.349Z,13.70
2018-11-11T04:14:36.723Z,13.60
2018-11-11T04:15:40.128Z,13.70
2018-11-11T04:16:43.534Z,13.70
2018-11-11T04:17:47.295Z,13.70
2018-11-11T04:18:50.704Z,13.60
2018-11-11T04:19:54.055Z,13.70
2018-11-11T04:20:57.548Z,13.70
2018-11-11T04:22:05.173Z,13.60
2018-11-11T04:23:08.532Z,13.60
2018-11-11T04:24:11.957Z,13.60
2018-11-11T04:25:16.110Z,13.70
2018-11-11T04:26:19.557Z,13.60
2018-11-11T04:27:22.969Z,13.60
2018-11-11T04:28:26.348Z,13.60
2018-11-11T04:29:29.704Z,13.60
2018-11-11T04:30:33.107Z,13.70
2018-11-11T04:31:36.487Z,13.70
2018-11-11T04:32:40.144Z,13.60
2018-11-11T04:33:43.666Z,13.70
2018-11-11T04:34:47.033Z,13.70
2018-11-11T04:35:50.413Z,13.70
2018-11-11T04:36:53.795Z,13.70
2018-11-11T04:37:57.185Z,13.70
2018-11-11T04:39:00.551Z,13.70
2018-11-11T04:40:04.368Z,13.70
2018-11-11T04:41:07.763Z,13.70
2018-11-11T04:42:11.152Z,13.70
2018-11-11T04:43:14.596Z,13.70
2018-11-11T04:44:17.988Z,13.70
2018-11-11T04:45:21.388Z,13.70
2018-11-11T04:46:25.045Z,13.70
2018-11-11T04:47:28.376Z,13.70
2018-11-11T04:48:31.780Z,13.70
2018-11-11T04:49:35.216Z,13.70
2018-11-11T04:50:38.712Z,13.70
2018-11-11T04:51:42.096Z,13.70
2018-11-11T04:52:46.178Z,13.70
2018-11-11T04:53:49.580Z,13.70
2018-11-11T04:54:52.952Z,13.70
2018-11-11T04:55:56.329Z,13.70
2018-11-11T04:56:59.709Z,13.70
2018-11-11T04:58:03.086Z,13.70
2018-11-11T04:59:06.825Z,13.70
2018-11-11T05:00:11.728Z,13.70
2018-11-11T05:01:15.177Z,13.70
2018-11-11T05:02:18.535Z,13.70
2018-11-11T05:03:21.899Z,13.70
2018-11-11T05:04:25.312Z,13.70
2018-11-11T05:05:28.768Z,13.70
2018-11-11T05:06:32.170Z,13.80
2018-11-11T05:07:35.560Z,13.80
2018-11-11T05:08:38.969Z,13.80
2018-11-11T05:09:42.458Z,13.70
2018-11-11T05:10:45.879Z,13.80
2018-11-11T05:11:49.344Z,13.80
2018-11-11T05:12:52.728Z,13.80
2018-11-11T05:13:56.096Z,13.80
2018-11-11T05:14:59.477Z,13.80
2018-11-11T05:16:02.921Z,13.80
2018-11-11T05:17:06.310Z,13.80
2018-11-11T05:18:09.695Z,13.80
2018-11-11T05:19:13.060Z,13.80
2018-11-11T05:20:16.458Z,13.80
2018-11-11T05:21:19.941Z,13.70
2018-11-11T05:22:23.352Z,13.70
2018-11-11T05:23:26.710Z,13.80
2018-11-11T05:24:30.072Z,13.70
2018-11-11T05:25:33.465Z,13.80
2018-11-11T05:26:36.850Z,13.70
2018-11-11T05:27:40.297Z,13.80
2018-11-11T05:28:43.673Z,13.80
2018-11-11T05:29:47.060Z,13.80
2018-11-11T05:30:50.539Z,13.80
2018-11-11T05:31:53.863Z,13.70
2018-11-11T05:32:57.245Z,13.70
2018-11-11T05:34:00.648Z,13.80
2018-11-11T05:35:05.310Z,13.70
2018-11-11T05:36:08.680Z,13.80
2018-11-11T05:37:12.080Z,13.70
2018-11-11T05:38:15.465Z,13.70
2018-11-11T05:39:18.839Z,13.80
2018-11-11T05:40:22.232Z,13.70
2018-11-11T05:41:25.612Z,13.70
2018-11-11T05:42:29.001Z,13.70
2018-11-11T05:43:32.380Z,13.80
2018-11-11T05:44:35.781Z,13.70
2018-11-11T05:45:39.179Z,13.70
2018-11-11T05:46:42.573Z,13.80
2018-11-11T05:47:45.943Z,13.80
2018-11-11T05:48:49.356Z,13.80
2018-11-11T05:49:52.736Z,13.80
2018-11-11T05:50:56.096Z,13.80
2018-11-11T05:51:59.460Z,13.80
2018-11-11T05:53:02.851Z,13.80
2018-11-11T05:54:06.216Z,13.80
2018-11-11T05:55:09.961Z,13.80
2018-11-11T05:56:13.336Z,13.80
2018-11-11T05:57:16.700Z,13.80
2018-11-11T05:58:20.083Z,13.80
2018-11-11T05:59:23.504Z,13.80
2018-11-11T06:00:26.924Z,13.80
2018-11-11T06:01:30.352Z,13.80
2018-11-11T06:02:33.724Z,13.80
2018-11-11T06:03:37.094Z,13.80
2018-11-11T06:04:40.488Z,13.80
2018-11-11T06:05:43.883Z,13.80
2018-11-11T06:06:47.253Z,13.80
2018-11-11T06:07:50.728Z,13.80
2018-11-11T06:08:54.100Z,13.80
2018-11-11T06:09:57.488Z,13.80
2018-11-11T06:11:00.856Z,13.80
2018-11-11T06:12:04.231Z,13.80
2018-11-11T06:13:07.596Z,13.80
2018-11-11T06:14:11.020Z,13.80
2018-11-11T06:15:14.905Z,13.80
2018-11-11T06:16:18.275Z,13.80
2018-11-11T06:17:21.673Z,13.80
2018-11-11T06:18:25.051Z,13.80
2018-11-11T06:19:28.443Z,13.80
2018-11-11T06:20:32.496Z,13.80
2018-11-11T06:21:36.016Z,13.80
2018-11-11T06:22:39.384Z,13.80
2018-11-11T06:23:42.799Z,13.80
2018-11-11T06:24:46.295Z,13.80
2018-11-11T06:25:49.689Z,13.80
2018-11-11T06:26:53.206Z,13.80
2018-11-11T06:27:56.704Z,13.80
2018-11-11T06:29:00.072Z,13.80
2018-11-11T06:30:03.612Z,13.80
2018-11-11T06:31:06.997Z,13.80
2018-11-11T06:32:10.394Z,13.80
2018-11-11T06:33:13.768Z,13.80
2018-11-11T06:34:17.334Z,13.80
2018-11-11T06:35:20.683Z,13.80
2018-11-11T06:36:24.072Z,13.80
2018-11-11T06:37:27.440Z,13.80
2018-11-11T06:38:30.804Z,13.80
2018-11-11T06:39:34.180Z,13.80
2018-11-11T06:40:37.701Z,13.80
2018-11-11T06:41:41.099Z,13.80
2018-11-11T06:42:44.488Z,13.80
2018-11-11T06:43:47.876Z,13.80
2018-11-11T06:44:51.261Z,13.80
2018-11-11T06:45:54.849Z,13.80
2018-11-11T06:46:58.254Z,13.80
2018-11-11T06:48:01.632Z,13.80
2018-11-11T06:49:05.190Z,13.90
2018-11-11T06:50:09.528Z,13.80
2018-11-11T06:51:12.907Z,13.80
2018-11-11T06:52:16.294Z,13.80
2018-11-11T06:53:19.788Z,13.90
2018-11-11T06:54:23.204Z,13.90
2018-11-11T06:55:26.632Z,13.90
2018-11-11T06:56:30.001Z,13.90
2018-11-11T06:57:33.429Z,13.90
2018-11-11T06:58:36.803Z,13.80
2018-11-11T06:59:40.256Z,13.90
2018-11-11T07:00:43.646Z,13.90
2018-11-11T07:01:47.024Z,13.90
2018-11-11T07:03:01.695Z,13.90
2018-11-11T07:04:05.287Z,13.90
2018-11-11T07:05:09.523Z,13.90
2018-11-11T07:06:12.886Z,13.90
2018-11-11T07:07:16.284Z,13.90
2018-11-11T07:08:19.643Z,13.90
2018-11-11T07:09:23.090Z,13.90
2018-11-11T07:10:26.487Z,13.90
2018-11-11T07:11:29.892Z,13.90
2018-11-11T07:12:33.341Z,13.90
2018-11-11T07:13:36.692Z,13.90
2018-11-11T07:14:40.083Z,13.90
2018-11-11T07:15:43.501Z,13.90
2018-11-11T07:16:46.911Z,13.90
2018-11-11T07:17:50.281Z,13.90
2018-11-11T07:18:53.645Z,13.90
2018-11-11T07:19:57.135Z,13.90
2018-11-11T07:21:00.505Z,13.90
2018-11-11T07:22:03.882Z,13.90
2018-11-11T07:23:07.465Z,13.90
2018-11-11T07:24:10.884Z,13.90
2018-11-11T07:25:14.275Z,14.00
2018-11-11T07:26:17.716Z,13.90
2018-11-11T07:27:21.105Z,14.00
2018-11-11T07:28:24.799Z,14.00
2018-11-11T07:29:28.492Z,14.00
2018-11-11T07:30:32.010Z,14.00
2018-11-11T07:31:35.367Z,14.00
2018-11-11T07:32:38.734Z,14.00
2018-11-11T07:33:42.178Z,14.00
2018-11-11T07:34:46.164Z,14.00
2018-11-11T07:35:55.967Z,14.00
2018-11-11T07:36:59.474Z,14.00
2018-11-11T07:38:02.837Z,14.00
2018-11-11T07:39:09.908Z,14.00
2018-11-11T07:40:14.747Z,14.00
2018-11-11T07:41:18.133Z,14.00
2018-11-11T07:42:21.576Z,14.00
2018-11-11T07:43:24.916Z,14.00
2018-11-11T07:44:28.301Z,14.00
2018-11-11T07:45:31.709Z,14.00
2018-11-11T07:46:35.133Z,14.00
2018-11-11T07:47:38.530Z,14.00
2018-11-11T07:48:41.936Z,14.00
2018-11-11T07:49:45.327Z,14.00
2018-11-11T07:50:48.740Z,14.00
2018-11-11T07:51:52.144Z,14.00
2018-11-11T07:52:55.495Z,14.00
2018-11-11T07:53:58.889Z,14.00
2018-11-11T07:55:02.370Z,14.10
2018-11-11T07:56:05.717Z,14.10
2018-11-11T07:57:09.321Z,14.10
2018-11-11T07:58:12.714Z,14.10
2018-11-11T07:59:16.116Z,14.10
2018-11-11T08:00:19.506Z,14.10
2018-11-11T08:01:22.925Z,14.10
2018-11-11T08:02:26.344Z,14.10
2018-11-11T08:03:29.740Z,14.10
2018-11-11T08:04:33.144Z,14.20
2018-11-11T08:05:36.595Z,14.10
2018-11-11T08:06:39.972Z,14.20
2018-11-11T08:07:43.356Z,14.20
2018-11-11T08:08:46.726Z,14.20
2018-11-11T08:09:50.112Z,14.10
2018-11-11T08:11:04.876Z,14.20
2018-11-11T08:12:08.453Z,14.20
2018-11-11T08:13:11.956Z,14.20
2018-11-11T08:14:15.365Z,14.20
2018-11-11T08:15:18.809Z,14.20
2018-11-11T08:16:22.216Z,14.20
2018-11-11T08:17:25.608Z,14.20
2018-11-11T08:18:29.009Z,14.20
2018-11-11T08:19:32.426Z,14.20
2018-11-11T08:20:35.965Z,14.30
2018-11-11T08:21:39.386Z,14.30
2018-11-11T08:22:42.760Z,14.20
2018-11-11T08:23:46.151Z,14.20
2018-11-11T08:24:49.820Z,14.30
2018-11-11T08:25:53.419Z,14.20
2018-11-11T08:26:57.336Z,14.20
2018-11-11T08:28:00.768Z,14.20
2018-11-11T08:29:04.144Z,14.20
2018-11-11T08:30:08.620Z,14.20
2018-11-11T08:31:12.204Z,14.30
2018-11-11T08:32:15.725Z,14.30
2018-11-11T08:33:19.082Z,14.30
2018-11-11T08:34:22.457Z,14.40
2018-11-11T08:35:25.979Z,14.40
2018-11-11T08:36:29.385Z,14.40
2018-11-11T08:37:32.758Z,14.40
2018-11-11T08:38:36.241Z,14.40
2018-11-11T08:39:39.638Z,14.40
2018-11-11T08:40:43.094Z,14.40
2018-11-11T08:41:46.840Z,14.40
2018-11-11T08:42:50.208Z,14.40
2018-11-11T08:43:53.656Z,14.40
2018-11-11T08:44:57.143Z,14.30
2018-11-11T08:46:00.690Z,14.40
2018-11-11T08:47:04.172Z,14.30
2018-11-11T08:48:07.628Z,14.30
2018-11-11T08:49:12.223Z,14.30
2018-11-11T08:50:15.698Z,14.30
2018-11-11T08:51:19.499Z,14.30
2018-11-11T08:52:22.935Z,14.30
2018-11-11T08:53:26.368Z,14.30
2018-11-11T08:54:29.747Z,14.30
2018-11-11T08:55:33.140Z,14.30
2018-11-11T08:56:36.537Z,14.20
2018-11-11T08:57:39.949Z,14.30
2018-11-11T08:58:43.379Z,14.20
2018-11-11T08:59:46.757Z,14.30
2018-11-11T09:00:50.168Z,14.20
2018-11-11T09:01:53.544Z,14.30
2018-11-11T09:02:56.904Z,14.30
2018-11-11T09:04:00.297Z,14.30
2018-11-11T09:05:03.716Z,14.30
2018-11-11T09:06:07.094Z,14.30
2018-11-11T09:07:10.459Z,14.30
2018-11-11T09:08:13.833Z,14.30
2018-11-11T09:09:17.221Z,14.30
2018-11-11T09:10:20.737Z,14.30
2018-11-11T09:11:24.169Z,14.30
2018-11-11T09:12:27.538Z,14.40
2018-11-11T09:13:30.897Z,14.40
2018-11-11T09:14:34.295Z,14.40
2018-11-11T09:15:37.707Z,14.40
2018-11-11T09:16:41.092Z,14.40
2018-11-11T09:17:44.789Z,14.40
2018-11-11T09:18:48.664Z,14.40
2018-11-11T09:19:52.024Z,14.40
2018-11-11T09:20:55.464Z,14.40
2018-11-11T09:21:58.829Z,14.30
2018-11-11T09:23:02.226Z,14.30
2018-11-11T09:24:05.900Z,14.30
2018-11-11T09:25:09.997Z,14.40
2018-11-11T09:26:13.408Z,14.30
2018-11-11T09:27:16.780Z,14.30
2018-11-11T09:28:20.283Z,14.30
2018-11-11T09:29:23.687Z,14.30
2018-11-11T09:30:27.174Z,14.30
2018-11-11T09:31:30.491Z,14.30
2018-11-11T09:32:33.881Z,14.40
2018-11-11T09:33:37.311Z,14.50
2018-11-11T09:34:40.692Z,14.50
2018-11-11T09:35:44.076Z,14.60
2018-11-11T09:36:47.528Z,14.60
2018-11-11T09:37:50.896Z,14.70
2018-11-11T09:38:54.270Z,14.70
2018-11-11T09:39:57.652Z,14.80
2018-11-11T09:41:01.016Z,14.80
2018-11-11T09:42:04.637Z,14.80
2018-11-11T09:43:07.995Z,14.90
2018-11-11T09:44:11.401Z,14.90
2018-11-11T09:45:15.663Z,15.00
2018-11-11T09:46:19.120Z,15.00
2018-11-11T09:47:22.496Z,15.00
2018-11-11T09:48:25.880Z,15.10
2018-11-11T09:49:29.289Z,15.10
2018-11-11T09:50:32.796Z,15.10
2018-11-11T09:51:36.165Z,15.10
2018-11-11T09:52:39.876Z,15.20
2018-11-11T09:53:43.204Z,15.20
2018-11-11T09:54:46.717Z,15.20
2018-11-11T09:55:50.129Z,15.20
2018-11-11T09:56:53.496Z,15.20
2018-11-11T09:57:57.099Z,15.30
2018-11-11T09:59:00.519Z,15.30
2018-11-11T10:00:03.900Z,15.30
2018-11-11T10:01:07.490Z,15.30
2018-11-11T10:02:11.105Z,15.30
2018-11-11T10:03:19.948Z,15.40
2018-11-11T10:04:26.653Z,15.30
2018-11-11T10:05:42.053Z,15.40
2018-11-11T10:06:52.621Z,15.40
2018-11-11T10:10:04.952Z,15.40
2018-11-11T10:13:18.740Z,15.40
2018-11-11T10:16:35.760Z,15.40
2018-11-11T10:18:46.364Z,15.40
2018-11-11T10:19:55.564Z,15.40
2018-11-11T10:21:09.176Z,15.50
2018-11-11T10:24:21.018Z,15.50
2018-11-11T10:25:28.151Z,15.50
2018-11-11T10:26:35.726Z,15.40
2018-11-11T10:28:41.892Z,15.50
2018-11-11T10:29:53.836Z,15.50
2018-11-11T10:31:32.601Z,15.50
2018-11-11T10:32:51.583Z,15.50
2018-11-11T10:34:02.196Z,15.50
2018-11-11T10:35:15.999Z,15.60
2018-11-11T10:36:38.170Z,15.60
2018-11-11T10:37:44.911Z,15.60
2018-11-11T10:38:52.413Z,15.70
2018-11-11T10:40:02.596Z,15.70
2018-11-11T10:41:10.194Z,15.60
2018-11-11T10:42:20.281Z,15.60
2018-11-11T10:43:29.016Z,15.60
2018-11-11T10:44:45.301Z,15.50
2018-11-11T10:46:05.669Z,15.50
2018-11-11T10:47:15.002Z,15.40
2018-11-11T10:48:22.057Z,15.40
2018-11-11T10:49:30.469Z,15.40
2018-11-11T10:50:41.024Z,15.30
2018-11-11T10:51:44.595Z,15.40
2018-11-11T10:52:48.062Z,15.40
2018-11-11T10:53:51.430Z,15.40
2018-11-11T10:54:55.021Z,15.40
2018-11-11T10:55:58.488Z,15.40
2018-11-11T10:57:01.909Z,15.50
2018-11-11T10:58:05.512Z,15.50
2018-11-11T10:59:09.081Z,15.60
2018-11-11T11:00:17.998Z,15.60
2018-11-11T11:01:31.053Z,15.60
2018-11-11T11:02:39.740Z,15.60
2018-11-11T11:03:43.126Z,15.60
2018-11-11T11:04:52.219Z,15.60
2018-11-11T11:05:55.660Z,15.60
2018-11-11T11:07:04.532Z,15.60
2018-11-11T11:08:07.981Z,15.60
2018-11-11T11:09:13.657Z,15.70
2018-11-11T11:10:17.046Z,15.70
2018-11-11T11:11:20.441Z,15.70
2018-11-11T11:12:23.864Z,15.70
2018-11-11T11:13:28.081Z,15.70
2018-11-11T11:14:31.370Z,15.70
2018-11-11T11:15:34.747Z,15.80
2018-11-11T11:16:38.184Z,15.80
2018-11-11T11:17:41.611Z,15.80
2018-11-11T11:18:45.000Z,15.80
2018-11-11T11:19:48.361Z,15.90
2018-11-11T11:20:51.741Z,15.80
2018-11-11T11:21:55.117Z,15.90
2018-11-11T11:22:58.507Z,15.90
2018-11-11T11:24:01.945Z,15.90
2018-11-11T11:25:06.296Z,15.90
2018-11-11T11:26:09.680Z,15.90
2018-11-11T11:27:13.192Z,15.90
2018-11-11T11:28:16.494Z,15.90
2018-11-11T11:29:19.883Z,15.90
2018-11-11T11:30:23.257Z,15.90
2018-11-11T11:31:26.939Z,15.90
2018-11-11T11:32:30.285Z,15.90
2018-11-11T11:33:33.685Z,16.00
2018-11-11T11:34:37.119Z,16.00
2018-11-11T11:35:40.582Z,16.00
2018-11-11T11:36:43.946Z,16.00
2018-11-11T11:37:47.304Z,16.00
2018-11-11T11:38:51.030Z,16.10
2018-11-11T11:39:54.445Z,16.10
2018-11-11T11:40:57.836Z,16.10
2018-11-11T11:42:01.233Z,16.10
2018-11-11T11:43:04.732Z,16.10
2018-11-11T11:44:08.299Z,16.10
2018-11-11T11:45:12.377Z,16.10
2018-11-11T11:46:15.771Z,16.10
2018-11-11T11:47:19.296Z,16.10
2018-11-11T11:48:22.642Z,16.10
2018-11-11T11:49:26.044Z,16.10
2018-11-11T11:50:29.775Z,16.10
2018-11-11T11:51:33.116Z,16.20
2018-11-11T11:52:36.574Z,16.20
2018-11-11T11:53:40.004Z,16.20
2018-11-11T11:54:43.376Z,16.20
2018-11-11T11:55:46.756Z,16.30
2018-11-11T11:56:50.182Z,16.30
2018-11-11T11:58:08.025Z,16.30
2018-11-11T11:59:11.337Z,16.30
2018-11-11T12:00:14.709Z,16.30
2018-11-11T12:01:18.145Z,16.30
2018-11-11T12:02:21.610Z,16.30
2018-11-11T12:03:24.956Z,16.30
2018-11-11T12:04:28.343Z,16.30
2018-11-11T12:05:31.716Z,16.30
2018-11-11T12:06:35.162Z,16.20
2018-11-11T12:07:38.568Z,16.20
2018-11-11T12:08:41.983Z,16.10
2018-11-11T12:09:45.376Z,16.10
2018-11-11T12:10:48.855Z,16.10
2018-11-11T12:11:52.257Z,16.10
2018-11-11T12:12:55.631Z,16.00
2018-11-11T12:13:59.025Z,16.00
2018-11-11T12:15:02.396Z,16.00
2018-11-11T12:16:06.017Z,16.00
2018-11-11T12:17:09.419Z,15.90
2018-11-11T12:18:12.837Z,15.90
2018-11-11T12:19:16.216Z,15.90
2018-11-11T12:20:19.890Z,15.80
2018-11-11T12:21:23.337Z,15.80
2018-11-11T12:22:26.992Z,15.80
2018-11-11T12:23:30.413Z,15.80
2018-11-11T12:24:33.817Z,15.80
2018-11-11T12:25:38.201Z,15.80
2018-11-11T12:26:41.597Z,15.80
2018-11-11T12:27:45.005Z,15.80
2018-11-11T12:28:48.408Z,15.80
2018-11-11T12:29:51.809Z,15.70
2018-11-11T12:30:55.311Z,15.70
2018-11-11T12:31:58.600Z,15.70
2018-11-11T12:33:02.135Z,15.70
2018-11-11T12:34:06.133Z,15.70
2018-11-11T12:35:09.565Z,15.70
2018-11-11T12:36:12.944Z,15.70
2018-11-11T12:37:16.355Z,15.70
2018-11-11T12:38:19.723Z,15.70
2018-11-11T12:39:23.156Z,15.70
2018-11-11T12:40:26.532Z,15.70
2018-11-11T12:41:30.012Z,15.70
2018-11-11T12:42:33.431Z,15.70
2018-11-11T12:43:36.807Z,15.70
2018-11-11T12:44:40.271Z,15.70
2018-11-11T12:45:43.673Z,15.60
2018-11-11T12:46:47.231Z,15.60
2018-11-11T12:47:50.612Z,15.60
2018-11-11T12:48:53.997Z,15.60
2018-11-11T12:49:57.372Z,15.60
2018-11-11T12:51:00.778Z,15.60
2018-11-11T12:52:04.481Z,15.60
2018-11-11T12:53:07.844Z,15.60
2018-11-11T12:54:11.210Z,15.60
2018-11-11T12:55:14.631Z,15.60
2018-11-11T12:56:17.961Z,15.60
2018-11-11T12:57:21.397Z,15.60
2018-11-11T12:58:24.772Z,15.60
2018-11-11T12:59:28.176Z,15.60
2018-11-11T13:00:31.548Z,15.60
2018-11-11T13:01:34.942Z,15.60
2018-11-11T13:02:38.354Z,15.60
2018-11-11T13:03:41.852Z,15.60
2018-11-11T13:04:45.685Z,15.60
2018-11-11T13:05:49.555Z,15.60
2018-11-11T13:06:52.969Z,15.60
2018-11-11T13:07:56.382Z,15.60
2018-11-11T13:08:59.726Z,15.60
2018-11-11T13:10:04.160Z,15.60
2018-11-11T13:11:07.528Z,15.70
2018-11-11T13:12:11.087Z,15.60
2018-11-11T13:13:14.317Z,15.60
2018-11-11T13:14:17.708Z,15.60
2018-11-11T13:15:21.100Z,15.60
2018-11-11T13:16:24.513Z,15.60
2018-11-11T13:17:27.940Z,15.60
2018-11-11T13:18:31.559Z,15.60
2018-11-11T13:19:35.012Z,15.60
2018-11-11T13:20:38.337Z,15.60
2018-11-11T13:21:41.733Z,15.60
2018-11-11T13:22:45.222Z,15.60
2018-11-11T13:23:48.564Z,15.60
2018-11-11T13:24:52.101Z,15.60
2018-11-11T13:25:55.478Z,15.60
2018-11-11T13:26:58.857Z,15.60
2018-11-11T13:28:02.233Z,15.60
2018-11-11T13:29:05.624Z,15.60
2018-11-11T13:30:11.435Z,15.60
2018-11-11T13:31:14.832Z,15.60
2018-11-11T13:32:18.995Z,15.50
2018-11-11T13:33:22.499Z,15.50
2018-11-11T13:34:25.887Z,15.50
2018-11-11T13:35:29.274Z,15.50
2018-11-11T13:36:32.636Z,15.50
2018-11-11T13:37:36.119Z,15.50
2018-11-11T13:38:39.563Z,15.50
2018-11-11T13:39:42.884Z,15.50
2018-11-11T13:40:46.289Z,15.40
2018-11-11T13:41:49.659Z,15.40
2018-11-11T13:42:53.074Z,15.40
2018-11-11T13:43:56.496Z,15.40
2018-11-11T13:44:59.859Z,15.40
2018-11-11T13:46:03.254Z,15.40
2018-11-11T13:47:06.617Z,15.40
2018-11-11T13:48:10.086Z,15.40
2018-11-11T13:49:13.553Z,15.40
2018-11-11T13:50:18.237Z,15.40
2018-11-11T13:51:21.579Z,15.40
2018-11-11T13:52:25.055Z,15.30
2018-11-11T13:53:28.389Z,15.30
2018-11-11T13:54:31.759Z,15.30